sensor_id;sensor_type;location;lat;lon;timestamp;temperature;humidity
22006;DHT22;11167;46.988;15.470;2023-04-24T00:00:21;16.30;68.80
22006;DHT22;11167;46.988;15.470;2023-04-24T00:02:22;16.20;68.70
22006;DHT22;11167;46.988;15.470;2023-04-24T00:04:23;16.30;68.90
22006;DHT22;11167;46.988;15.470;2023-04-24T00:06:26;16.30;68.80
22006;DHT22;11167;46.988;15.470;2023-04-24T00:08:29;16.20;68.80
22006;DHT22;11167;46.988;15.470;2023-04-24T00:10:30;16.20;68.80
22006;DHT22;11167;46.988;15.470;2023-04-24T00:12:31;16.20;68.80
22006;DHT22;11167;46.988;15.470;2023-04-24T00:14:33;16.10;68.70
22006;DHT22;11167;46.988;15.470;2023-04-24T00:16:35;16.10;68.80
22006;DHT22;11167;46.988;15.470;2023-04-24T00:18:36;16.10;68.80
22006;DHT22;11167;46.988;15.470;2023-04-24T00:20:37;16.00;69.10
22006;DHT22;11167;46.988;15.470;2023-04-24T00:22:38;16.00;68.80
22006;DHT22;11167;46.988;15.470;2023-04-24T00:24:40;16.00;68.80
22006;DHT22;11167;46.988;15.470;2023-04-24T00:26:41;15.90;68.70
22006;DHT22;11167;46.988;15.470;2023-04-24T00:28:43;15.90;68.70
22006;DHT22;11167;46.988;15.470;2023-04-24T00:30:45;15.90;68.70
22006;DHT22;11167;46.988;15.470;2023-04-24T00:32:46;15.90;68.80
22006;DHT22;11167;46.988;15.470;2023-04-24T00:34:47;15.80;68.80
22006;DHT22;11167;46.988;15.470;2023-04-24T00:36:48;15.80;68.70
22006;DHT22;11167;46.988;15.470;2023-04-24T00:38:54;15.80;68.70
22006;DHT22;11167;46.988;15.470;2023-04-24T00:40:55;15.80;68.90
22006;DHT22;11167;46.988;15.470;2023-04-24T00:42:56;15.70;68.70
22006;DHT22;11167;46.988;15.470;2023-04-24T00:44:57;15.70;68.70
22006;DHT22;11167;46.988;15.470;2023-04-24T00:46:59;15.70;68.70
22006;DHT22;11167;46.988;15.470;2023-04-24T00:49:02;15.60;68.70
22006;DHT22;11167;46.988;15.470;2023-04-24T00:51:03;15.60;68.70
22006;DHT22;11167;46.988;15.470;2023-04-24T00:53:05;15.60;68.70
22006;DHT22;11167;46.988;15.470;2023-04-24T00:55:06;15.60;68.70
22006;DHT22;11167;46.988;15.470;2023-04-24T00:57:08;15.50;68.80
22006;DHT22;11167;46.988;15.470;2023-04-24T00:59:10;15.50;68.80
22006;DHT22;11167;46.988;15.470;2023-04-24T01:01:12;15.50;68.80
22006;DHT22;11167;46.988;15.470;2023-04-24T01:03:13;15.50;68.80
22006;DHT22;11167;46.988;15.470;2023-04-24T01:05:15;15.40;68.80
22006;DHT22;11167;46.988;15.470;2023-04-24T01:07:19;15.40;68.80
22006;DHT22;11167;46.988;15.470;2023-04-24T01:09:23;15.30;68.80
22006;DHT22;11167;46.988;15.470;2023-04-24T01:11:24;15.30;68.80
22006;DHT22;11167;46.988;15.470;2023-04-24T01:13:27;15.30;68.80
22006;DHT22;11167;46.988;15.470;2023-04-24T01:15:28;15.30;68.80
22006;DHT22;11167;46.988;15.470;2023-04-24T01:17:29;15.30;68.80
22006;DHT22;11167;46.988;15.470;2023-04-24T01:19:32;15.20;68.80
22006;DHT22;11167;46.988;15.470;2023-04-24T01:21:36;15.20;68.80
22006;DHT22;11167;46.988;15.470;2023-04-24T01:23:37;15.20;68.80
22006;DHT22;11167;46.988;15.470;2023-04-24T01:25:39;15.20;68.90
22006;DHT22;11167;46.988;15.470;2023-04-24T01:27:40;15.10;69.60
22006;DHT22;11167;46.988;15.470;2023-04-24T01:29:41;15.10;68.80
22006;DHT22;11167;46.988;15.470;2023-04-24T01:31:42;15.10;68.80
22006;DHT22;11167;46.988;15.470;2023-04-24T01:33:44;15.10;68.90
22006;DHT22;11167;46.988;15.470;2023-04-24T01:35:45;15.00;68.80
22006;DHT22;11167;46.988;15.470;2023-04-24T01:37:46;15.00;68.80
22006;DHT22;11167;46.988;15.470;2023-04-24T01:39:47;15.00;68.80
22006;DHT22;11167;46.988;15.470;2023-04-24T01:41:49;15.00;68.80
22006;DHT22;11167;46.988;15.470;2023-04-24T01:43:51;14.90;68.80
22006;DHT22;11167;46.988;15.470;2023-04-24T01:45:53;14.90;68.80
22006;DHT22;11167;46.988;15.470;2023-04-24T01:47:54;14.90;68.90
22006;DHT22;11167;46.988;15.470;2023-04-24T01:49:56;14.90;68.80
22006;DHT22;11167;46.988;15.470;2023-04-24T01:51:58;14.80;68.80
22006;DHT22;11167;46.988;15.470;2023-04-24T01:54:00;14.80;68.80
22006;DHT22;11167;46.988;15.470;2023-04-24T01:56:01;14.80;68.90
22006;DHT22;11167;46.988;15.470;2023-04-24T01:58:03;14.80;68.90
22006;DHT22;11167;46.988;15.470;2023-04-24T02:00:06;14.70;68.80
22006;DHT22;11167;46.988;15.470;2023-04-24T02:02:08;14.70;68.80
22006;DHT22;11167;46.988;15.470;2023-04-24T02:04:09;14.70;68.80
22006;DHT22;11167;46.988;15.470;2023-04-24T02:06:10;14.70;68.80
22006;DHT22;11167;46.988;15.470;2023-04-24T02:08:12;14.70;68.90
22006;DHT22;11167;46.988;15.470;2023-04-24T02:10:13;14.60;68.90
22006;DHT22;11167;46.988;15.470;2023-04-24T02:12:17;14.60;68.90
22006;DHT22;11167;46.988;15.470;2023-04-24T02:14:18;14.60;68.90
22006;DHT22;11167;46.988;15.470;2023-04-24T02:16:19;14.60;68.90
22006;DHT22;11167;46.988;15.470;2023-04-24T02:18:20;14.50;68.90
22006;DHT22;11167;46.988;15.470;2023-04-24T02:20:23;14.50;68.90
22006;DHT22;11167;46.988;15.470;2023-04-24T02:22:24;14.50;69.00
22006;DHT22;11167;46.988;15.470;2023-04-24T02:24:25;14.50;69.00
22006;DHT22;11167;46.988;15.470;2023-04-24T02:26:26;14.50;69.00
22006;DHT22;11167;46.988;15.470;2023-04-24T02:28:27;14.40;69.00
22006;DHT22;11167;46.988;15.470;2023-04-24T02:30:28;14.40;69.10
22006;DHT22;11167;46.988;15.470;2023-04-24T02:32:29;14.40;69.00
22006;DHT22;11167;46.988;15.470;2023-04-24T02:34:31;14.40;69.20
22006;DHT22;11167;46.988;15.470;2023-04-24T02:36:32;14.30;69.10
22006;DHT22;11167;46.988;15.470;2023-04-24T02:38:33;14.30;69.10
22006;DHT22;11167;46.988;15.470;2023-04-24T02:40:35;14.30;69.10
22006;DHT22;11167;46.988;15.470;2023-04-24T02:42:36;14.30;69.10
22006;DHT22;11167;46.988;15.470;2023-04-24T02:44:37;14.30;69.10
22006;DHT22;11167;46.988;15.470;2023-04-24T02:46:38;14.30;69.10
22006;DHT22;11167;46.988;15.470;2023-04-24T02:48:38;14.20;69.10
22006;DHT22;11167;46.988;15.470;2023-04-24T02:50:40;14.20;69.10
22006;DHT22;11167;46.988;15.470;2023-04-24T02:52:41;14.20;69.10
22006;DHT22;11167;46.988;15.470;2023-04-24T02:54:42;14.10;69.10
22006;DHT22;11167;46.988;15.470;2023-04-24T02:56:43;14.10;69.10
22006;DHT22;11167;46.988;15.470;2023-04-24T02:58:44;14.10;69.10
22006;DHT22;11167;46.988;15.470;2023-04-24T03:00:46;14.10;69.10
22006;DHT22;11167;46.988;15.470;2023-04-24T03:02:48;14.10;69.20
22006;DHT22;11167;46.988;15.470;2023-04-24T03:04:50;14.10;69.20
22006;DHT22;11167;46.988;15.470;2023-04-24T03:06:52;14.00;69.10
22006;DHT22;11167;46.988;15.470;2023-04-24T03:08:55;14.00;69.20
22006;DHT22;11167;46.988;15.470;2023-04-24T03:10:56;14.00;69.20
22006;DHT22;11167;46.988;15.470;2023-04-24T03:12:57;14.00;69.20
22006;DHT22;11167;46.988;15.470;2023-04-24T03:14:58;13.90;69.20
22006;DHT22;11167;46.988;15.470;2023-04-24T03:17:00;13.90;69.20
22006;DHT22;11167;46.988;15.470;2023-04-24T03:19:01;13.90;69.20
22006;DHT22;11167;46.988;15.470;2023-04-24T03:21:02;13.90;69.40
22006;DHT22;11167;46.988;15.470;2023-04-24T03:23:04;13.90;69.30
22006;DHT22;11167;46.988;15.470;2023-04-24T03:25:05;13.90;69.30
22006;DHT22;11167;46.988;15.470;2023-04-24T03:27:07;13.80;69.40
22006;DHT22;11167;46.988;15.470;2023-04-24T03:29:08;13.80;69.40
22006;DHT22;11167;46.988;15.470;2023-04-24T03:31:09;13.80;69.40
22006;DHT22;11167;46.988;15.470;2023-04-24T03:33:11;13.80;69.40
22006;DHT22;11167;46.988;15.470;2023-04-24T03:35:12;13.80;69.40
22006;DHT22;11167;46.988;15.470;2023-04-24T03:37:13;13.80;69.40
22006;DHT22;11167;46.988;15.470;2023-04-24T03:39:14;13.70;69.40
22006;DHT22;11167;46.988;15.470;2023-04-24T03:41:15;13.70;69.40
22006;DHT22;11167;46.988;15.470;2023-04-24T03:43:16;13.70;69.40
22006;DHT22;11167;46.988;15.470;2023-04-24T03:45:17;13.70;69.40
22006;DHT22;11167;46.988;15.470;2023-04-24T03:47:18;13.70;69.50
22006;DHT22;11167;46.988;15.470;2023-04-24T03:49:20;13.70;69.60
22006;DHT22;11167;46.988;15.470;2023-04-24T03:51:21;13.70;69.50
22006;DHT22;11167;46.988;15.470;2023-04-24T03:53:23;13.60;69.40
22006;DHT22;11167;46.988;15.470;2023-04-24T03:55:24;13.60;69.50
22006;DHT22;11167;46.988;15.470;2023-04-24T03:57:26;13.60;69.60
22006;DHT22;11167;46.988;15.470;2023-04-24T03:59:27;13.60;69.50
22006;DHT22;11167;46.988;15.470;2023-04-24T04:01:28;13.60;69.50
22006;DHT22;11167;46.988;15.470;2023-04-24T04:03:29;13.60;69.60
22006;DHT22;11167;46.988;15.470;2023-04-24T04:05:30;13.50;69.50
22006;DHT22;11167;46.988;15.470;2023-04-24T04:07:31;13.50;69.50
22006;DHT22;11167;46.988;15.470;2023-04-24T04:09:32;13.50;69.60
22006;DHT22;11167;46.988;15.470;2023-04-24T04:11:34;13.50;69.60
22006;DHT22;11167;46.988;15.470;2023-04-24T04:13:36;13.50;69.60
22006;DHT22;11167;46.988;15.470;2023-04-24T04:15:37;13.50;69.60
22006;DHT22;11167;46.988;15.470;2023-04-24T04:17:38;13.40;69.60
22006;DHT22;11167;46.988;15.470;2023-04-24T04:19:39;13.40;69.60
22006;DHT22;11167;46.988;15.470;2023-04-24T04:21:40;13.40;69.60
22006;DHT22;11167;46.988;15.470;2023-04-24T04:23:41;13.40;69.60
22006;DHT22;11167;46.988;15.470;2023-04-24T04:25:42;13.40;69.60
22006;DHT22;11167;46.988;15.470;2023-04-24T04:27:43;13.40;69.60
22006;DHT22;11167;46.988;15.470;2023-04-24T04:29:44;13.40;69.60
22006;DHT22;11167;46.988;15.470;2023-04-24T04:31:45;13.40;69.60
22006;DHT22;11167;46.988;15.470;2023-04-24T04:33:47;13.40;69.60
22006;DHT22;11167;46.988;15.470;2023-04-24T04:35:48;13.30;69.60
22006;DHT22;11167;46.988;15.470;2023-04-24T04:37:50;13.30;69.60
22006;DHT22;11167;46.988;15.470;2023-04-24T04:39:52;13.30;69.60
22006;DHT22;11167;46.988;15.470;2023-04-24T04:41:55;13.30;69.70
22006;DHT22;11167;46.988;15.470;2023-04-24T04:43:56;13.30;69.70
22006;DHT22;11167;46.988;15.470;2023-04-24T04:45:59;13.30;69.80
22006;DHT22;11167;46.988;15.470;2023-04-24T04:48:01;13.20;69.70
22006;DHT22;11167;46.988;15.470;2023-04-24T04:50:03;13.20;69.60
22006;DHT22;11167;46.988;15.470;2023-04-24T04:52:06;13.20;69.70
22006;DHT22;11167;46.988;15.470;2023-04-24T04:54:07;13.20;69.70
22006;DHT22;11167;46.988;15.470;2023-04-24T04:56:08;13.20;69.80
22006;DHT22;11167;46.988;15.470;2023-04-24T04:58:09;13.20;69.80
22006;DHT22;11167;46.988;15.470;2023-04-24T05:00:11;13.20;69.80
22006;DHT22;11167;46.988;15.470;2023-04-24T05:02:12;13.20;69.80
22006;DHT22;11167;46.988;15.470;2023-04-24T05:04:13;13.20;69.80
22006;DHT22;11167;46.988;15.470;2023-04-24T05:06:14;13.10;69.70
22006;DHT22;11167;46.988;15.470;2023-04-24T05:08:16;13.10;69.80
22006;DHT22;11167;46.988;15.470;2023-04-24T05:10:17;13.10;69.80
22006;DHT22;11167;46.988;15.470;2023-04-24T05:12:18;13.10;69.80
22006;DHT22;11167;46.988;15.470;2023-04-24T05:14:19;13.10;69.80
22006;DHT22;11167;46.988;15.470;2023-04-24T05:16:20;13.10;70.00
22006;DHT22;11167;46.988;15.470;2023-04-24T05:18:21;13.10;69.90
22006;DHT22;11167;46.988;15.470;2023-04-24T05:20:22;13.10;70.00
22006;DHT22;11167;46.988;15.470;2023-04-24T05:22:23;13.10;70.00
22006;DHT22;11167;46.988;15.470;2023-04-24T05:24:24;13.10;70.00
22006;DHT22;11167;46.988;15.470;2023-04-24T05:26:25;13.00;70.00
22006;DHT22;11167;46.988;15.470;2023-04-24T05:28:26;13.00;69.40
22006;DHT22;11167;46.988;15.470;2023-04-24T05:30:29;13.00;70.00
22006;DHT22;11167;46.988;15.470;2023-04-24T05:32:30;13.00;70.00
22006;DHT22;11167;46.988;15.470;2023-04-24T05:34:31;13.00;70.90
22006;DHT22;11167;46.988;15.470;2023-04-24T05:36:32;13.00;70.00
22006;DHT22;11167;46.988;15.470;2023-04-24T05:38:33;13.00;70.00
22006;DHT22;11167;46.988;15.470;2023-04-24T05:40:34;13.00;70.10
22006;DHT22;11167;46.988;15.470;2023-04-24T05:42:35;13.00;70.00
22006;DHT22;11167;46.988;15.470;2023-04-24T05:44:36;13.00;70.10
22006;DHT22;11167;46.988;15.470;2023-04-24T05:46:37;13.00;70.10
22006;DHT22;11167;46.988;15.470;2023-04-24T05:48:38;13.00;70.10
22006;DHT22;11167;46.988;15.470;2023-04-24T05:50:39;13.00;70.20
22006;DHT22;11167;46.988;15.470;2023-04-24T05:52:41;12.90;70.20
22006;DHT22;11167;46.988;15.470;2023-04-24T05:54:42;12.90;70.20
22006;DHT22;11167;46.988;15.470;2023-04-24T05:56:42;12.90;70.20
22006;DHT22;11167;46.988;15.470;2023-04-24T05:58:44;12.90;70.20
22006;DHT22;11167;46.988;15.470;2023-04-24T06:00:46;12.90;70.20
22006;DHT22;11167;46.988;15.470;2023-04-24T06:02:47;12.90;70.20
22006;DHT22;11167;46.988;15.470;2023-04-24T06:04:49;12.90;70.20
22006;DHT22;11167;46.988;15.470;2023-04-24T06:06:50;12.90;70.20
22006;DHT22;11167;46.988;15.470;2023-04-24T06:08:53;12.90;70.20
22006;DHT22;11167;46.988;15.470;2023-04-24T06:10:54;12.90;70.30
22006;DHT22;11167;46.988;15.470;2023-04-24T06:12:55;12.90;70.30
22006;DHT22;11167;46.988;15.470;2023-04-24T06:15:01;12.80;70.60
22006;DHT22;11167;46.988;15.470;2023-04-24T06:17:02;12.90;70.30
22006;DHT22;11167;46.988;15.470;2023-04-24T06:19:03;12.90;70.30
22006;DHT22;11167;46.988;15.470;2023-04-24T06:21:04;12.90;70.30
22006;DHT22;11167;46.988;15.470;2023-04-24T06:23:06;12.90;70.30
22006;DHT22;11167;46.988;15.470;2023-04-24T06:25:07;12.80;70.20
22006;DHT22;11167;46.988;15.470;2023-04-24T06:27:09;12.90;70.40
22006;DHT22;11167;46.988;15.470;2023-04-24T06:29:10;12.90;70.40
22006;DHT22;11167;46.988;15.470;2023-04-24T06:31:11;12.90;70.40
22006;DHT22;11167;46.988;15.470;2023-04-24T06:33:12;12.80;70.30
22006;DHT22;11167;46.988;15.470;2023-04-24T06:35:13;12.80;70.30
22006;DHT22;11167;46.988;15.470;2023-04-24T06:37:15;12.80;70.30
22006;DHT22;11167;46.988;15.470;2023-04-24T06:39:17;12.90;70.40
22006;DHT22;11167;46.988;15.470;2023-04-24T06:41:18;12.80;70.30
22006;DHT22;11167;46.988;15.470;2023-04-24T06:43:19;12.80;71.20
22006;DHT22;11167;46.988;15.470;2023-04-24T06:45:21;12.90;70.40
22006;DHT22;11167;46.988;15.470;2023-04-24T06:47:22;12.90;70.40
22006;DHT22;11167;46.988;15.470;2023-04-24T06:49:23;12.80;70.30
22006;DHT22;11167;46.988;15.470;2023-04-24T06:51:25;12.90;70.40
22006;DHT22;11167;46.988;15.470;2023-04-24T06:53:27;12.90;70.40
22006;DHT22;11167;46.988;15.470;2023-04-24T06:55:28;12.90;70.30
22006;DHT22;11167;46.988;15.470;2023-04-24T06:57:29;12.90;70.40
22006;DHT22;11167;46.988;15.470;2023-04-24T06:59:31;12.90;70.50
22006;DHT22;11167;46.988;15.470;2023-04-24T07:01:33;12.90;70.40
22006;DHT22;11167;46.988;15.470;2023-04-24T07:03:34;12.90;70.40
22006;DHT22;11167;46.988;15.470;2023-04-24T07:05:35;12.90;70.40
22006;DHT22;11167;46.988;15.470;2023-04-24T07:07:38;12.90;70.60
22006;DHT22;11167;46.988;15.470;2023-04-24T07:09:41;12.90;70.50
22006;DHT22;11167;46.988;15.470;2023-04-24T07:11:43;12.90;70.50
22006;DHT22;11167;46.988;15.470;2023-04-24T07:13:45;12.90;70.70
22006;DHT22;11167;46.988;15.470;2023-04-24T07:15:47;12.90;70.60
22006;DHT22;11167;46.988;15.470;2023-04-24T07:17:50;12.90;70.60
22006;DHT22;11167;46.988;15.470;2023-04-24T07:19:51;12.90;70.70
22006;DHT22;11167;46.988;15.470;2023-04-24T07:21:52;13.00;70.80
22006;DHT22;11167;46.988;15.470;2023-04-24T07:23:55;13.00;70.90
22006;DHT22;11167;46.988;15.470;2023-04-24T07:25:56;13.00;70.90
22006;DHT22;11167;46.988;15.470;2023-04-24T07:27:59;13.00;70.90
22006;DHT22;11167;46.988;15.470;2023-04-24T07:30:01;13.00;70.90
22006;DHT22;11167;46.988;15.470;2023-04-24T07:32:02;13.00;70.90
22006;DHT22;11167;46.988;15.470;2023-04-24T07:34:03;13.00;70.90
22006;DHT22;11167;46.988;15.470;2023-04-24T07:36:05;13.00;70.90
22006;DHT22;11167;46.988;15.470;2023-04-24T07:38:06;13.00;70.90
22006;DHT22;11167;46.988;15.470;2023-04-24T07:40:07;13.00;71.00
22006;DHT22;11167;46.988;15.470;2023-04-24T07:42:08;13.00;70.90
22006;DHT22;11167;46.988;15.470;2023-04-24T07:44:09;13.10;70.90
22006;DHT22;11167;46.988;15.470;2023-04-24T07:46:10;13.00;70.90
22006;DHT22;11167;46.988;15.470;2023-04-24T07:48:12;13.00;70.90
22006;DHT22;11167;46.988;15.470;2023-04-24T07:50:15;13.00;70.90
22006;DHT22;11167;46.988;15.470;2023-04-24T07:52:15;13.00;70.90
22006;DHT22;11167;46.988;15.470;2023-04-24T07:54:16;13.00;71.80
22006;DHT22;11167;46.988;15.470;2023-04-24T07:56:18;13.10;71.00
22006;DHT22;11167;46.988;15.470;2023-04-24T07:58:19;13.00;70.90
22006;DHT22;11167;46.988;15.470;2023-04-24T08:00:20;13.10;71.00
22006;DHT22;11167;46.988;15.470;2023-04-24T08:02:21;13.10;71.00
22006;DHT22;11167;46.988;15.470;2023-04-24T08:04:24;13.10;70.60
22006;DHT22;11167;46.988;15.470;2023-04-24T08:06:26;13.10;71.00
22006;DHT22;11167;46.988;15.470;2023-04-24T08:08:29;13.10;71.00
22006;DHT22;11167;46.988;15.470;2023-04-24T08:10:30;13.10;71.00
22006;DHT22;11167;46.988;15.470;2023-04-24T08:12:31;13.10;71.00
22006;DHT22;11167;46.988;15.470;2023-04-24T08:14:32;13.10;71.00
22006;DHT22;11167;46.988;15.470;2023-04-24T08:16:33;13.10;70.60
22006;DHT22;11167;46.988;15.470;2023-04-24T08:18:34;13.10;71.00
22006;DHT22;11167;46.988;15.470;2023-04-24T08:20:36;13.10;71.00
22006;DHT22;11167;46.988;15.470;2023-04-24T08:22:37;13.10;71.00
22006;DHT22;11167;46.988;15.470;2023-04-24T08:24:38;13.10;71.00
22006;DHT22;11167;46.988;15.470;2023-04-24T08:26:39;13.10;70.90
22006;DHT22;11167;46.988;15.470;2023-04-24T08:28:40;13.10;71.00
22006;DHT22;11167;46.988;15.470;2023-04-24T08:30:42;13.20;71.10
22006;DHT22;11167;46.988;15.470;2023-04-24T08:32:43;13.10;71.80
22006;DHT22;11167;46.988;15.470;2023-04-24T08:34:44;13.10;71.00
22006;DHT22;11167;46.988;15.470;2023-04-24T08:36:45;13.20;71.00
22006;DHT22;11167;46.988;15.470;2023-04-24T08:38:46;13.10;71.00
22006;DHT22;11167;46.988;15.470;2023-04-24T08:40:47;13.20;71.40
22006;DHT22;11167;46.988;15.470;2023-04-24T08:42:52;13.20;71.10
22006;DHT22;11167;46.988;15.470;2023-04-24T08:44:55;13.10;71.00
22006;DHT22;11167;46.988;15.470;2023-04-24T08:46:56;13.20;71.20
22006;DHT22;11167;46.988;15.470;2023-04-24T08:48:58;13.20;71.10
22006;DHT22;11167;46.988;15.470;2023-04-24T08:50:59;13.20;71.10
22006;DHT22;11167;46.988;15.470;2023-04-24T08:53:02;13.20;71.10
22006;DHT22;11167;46.988;15.470;2023-04-24T08:55:03;13.20;71.10
22006;DHT22;11167;46.988;15.470;2023-04-24T08:57:06;13.20;71.10
22006;DHT22;11167;46.988;15.470;2023-04-24T08:59:08;13.20;71.10
22006;DHT22;11167;46.988;15.470;2023-04-24T09:01:10;13.20;71.20
22006;DHT22;11167;46.988;15.470;2023-04-24T09:03:17;13.20;71.10
22006;DHT22;11167;46.988;15.470;2023-04-24T09:05:18;13.20;71.00
22006;DHT22;11167;46.988;15.470;2023-04-24T09:07:23;13.20;71.60
22006;DHT22;11167;46.988;15.470;2023-04-24T09:09:25;13.20;71.10
22006;DHT22;11167;46.988;15.470;2023-04-24T09:11:26;13.20;71.10
22006;DHT22;11167;46.988;15.470;2023-04-24T09:13:27;13.20;71.10
22006;DHT22;11167;46.988;15.470;2023-04-24T09:15:29;13.20;71.10
22006;DHT22;11167;46.988;15.470;2023-04-24T09:17:33;13.20;71.10
22006;DHT22;11167;46.988;15.470;2023-04-24T09:19:36;13.30;71.20
22006;DHT22;11167;46.988;15.470;2023-04-24T09:21:37;13.30;71.20
22006;DHT22;11167;46.988;15.470;2023-04-24T09:23:38;13.20;71.10
22006;DHT22;11167;46.988;15.470;2023-04-24T09:25:40;13.20;71.10
22006;DHT22;11167;46.988;15.470;2023-04-24T09:27:45;13.20;71.10
22006;DHT22;11167;46.988;15.470;2023-04-24T09:29:54;13.20;71.10
22006;DHT22;11167;46.988;15.470;2023-04-24T09:31:55;13.30;71.20
22006;DHT22;11167;46.988;15.470;2023-04-24T09:33:59;13.30;71.20
22006;DHT22;11167;46.988;15.470;2023-04-24T09:36:00;13.30;71.20
22006;DHT22;11167;46.988;15.470;2023-04-24T09:38:01;13.30;71.30
22006;DHT22;11167;46.988;15.470;2023-04-24T09:40:19;13.30;71.30
22006;DHT22;11167;46.988;15.470;2023-04-24T09:42:21;13.30;71.30
22006;DHT22;11167;46.988;15.470;2023-04-24T09:44:26;13.30;71.30
22006;DHT22;11167;46.988;15.470;2023-04-24T09:46:30;13.30;71.30
22006;DHT22;11167;46.988;15.470;2023-04-24T09:48:37;13.40;71.50
22006;DHT22;11167;46.988;15.470;2023-04-24T09:50:38;13.30;71.40
22006;DHT22;11167;46.988;15.470;2023-04-24T09:52:47;13.40;71.50
22006;DHT22;11167;46.988;15.470;2023-04-24T09:54:53;13.40;71.50
22006;DHT22;11167;46.988;15.470;2023-04-24T09:56:55;13.40;71.50
22006;DHT22;11167;46.988;15.470;2023-04-24T09:59:07;13.40;71.50
22006;DHT22;11167;46.988;15.470;2023-04-24T10:01:08;13.40;71.50
22006;DHT22;11167;46.988;15.470;2023-04-24T10:03:09;13.40;71.50
22006;DHT22;11167;46.988;15.470;2023-04-24T10:05:11;13.40;71.50
22006;DHT22;11167;46.988;15.470;2023-04-24T10:07:14;13.40;71.60
22006;DHT22;11167;46.988;15.470;2023-04-24T10:09:20;13.40;71.50
22006;DHT22;11167;46.988;15.470;2023-04-24T10:11:21;13.40;71.60
22006;DHT22;11167;46.988;15.470;2023-04-24T10:13:23;13.50;71.60
22006;DHT22;11167;46.988;15.470;2023-04-24T10:15:26;13.50;71.60
22006;DHT22;11167;46.988;15.470;2023-04-24T10:17:28;13.50;71.60
22006;DHT22;11167;46.988;15.470;2023-04-24T10:19:30;13.50;71.60
22006;DHT22;11167;46.988;15.470;2023-04-24T10:21:34;13.50;71.60
22006;DHT22;11167;46.988;15.470;2023-04-24T10:23:36;13.50;71.60
22006;DHT22;11167;46.988;15.470;2023-04-24T10:25:37;13.60;71.70
22006;DHT22;11167;46.988;15.470;2023-04-24T10:27:39;13.60;71.80
22006;DHT22;11167;46.988;15.470;2023-04-24T10:29:41;13.60;72.60
22006;DHT22;11167;46.988;15.470;2023-04-24T10:31:45;13.60;71.80
22006;DHT22;11167;46.988;15.470;2023-04-24T10:33:47;13.60;71.80
22006;DHT22;11167;46.988;15.470;2023-04-24T10:35:52;13.60;71.80
22006;DHT22;11167;46.988;15.470;2023-04-24T10:38:01;13.60;71.80
22006;DHT22;11167;46.988;15.470;2023-04-24T10:40:01;13.60;71.80
22006;DHT22;11167;46.988;15.470;2023-04-24T10:42:14;13.60;72.50
22006;DHT22;11167;46.988;15.470;2023-04-24T10:44:37;13.70;71.80
22006;DHT22;11167;46.988;15.470;2023-04-24T10:46:39;13.60;71.80
22006;DHT22;11167;46.988;15.470;2023-04-24T10:48:43;13.70;72.80
22006;DHT22;11167;46.988;15.470;2023-04-24T10:50:52;13.70;71.80
22006;DHT22;11167;46.988;15.470;2023-04-24T10:53:06;13.70;71.90
22006;DHT22;11167;46.988;15.470;2023-04-24T10:55:09;13.70;71.90
22006;DHT22;11167;46.988;15.470;2023-04-24T10:57:27;13.70;71.90
22006;DHT22;11167;46.988;15.470;2023-04-24T10:59:34;13.70;71.90
22006;DHT22;11167;46.988;15.470;2023-04-24T11:01:37;13.80;72.10
22006;DHT22;11167;46.988;15.470;2023-04-24T11:03:40;13.80;72.00
22006;DHT22;11167;46.988;15.470;2023-04-24T11:08:21;13.80;72.90
22006;DHT22;11167;46.988;15.470;2023-04-24T11:10:26;13.90;72.30
22006;DHT22;11167;46.988;15.470;2023-04-24T11:12:27;13.90;72.30
22006;DHT22;11167;46.988;15.470;2023-04-24T11:14:29;13.90;72.30
22006;DHT22;11167;46.988;15.470;2023-04-24T11:16:40;13.90;72.30
22006;DHT22;11167;46.988;15.470;2023-04-24T11:18:44;13.90;72.30
22006;DHT22;11167;46.988;15.470;2023-04-24T11:20:49;14.00;72.40
22006;DHT22;11167;46.988;15.470;2023-04-24T11:22:52;14.00;72.30
22006;DHT22;11167;46.988;15.470;2023-04-24T11:24:55;14.00;72.30
22006;DHT22;11167;46.988;15.470;2023-04-24T11:29:08;14.10;72.50
22006;DHT22;11167;46.988;15.470;2023-04-24T11:31:37;14.10;72.60
22006;DHT22;11167;46.988;15.470;2023-04-24T11:33:39;14.10;72.50
22006;DHT22;11167;46.988;15.470;2023-04-24T11:35:40;14.10;72.60
22006;DHT22;11167;46.988;15.470;2023-04-24T11:37:46;14.10;72.60
22006;DHT22;11167;46.988;15.470;2023-04-24T11:39:54;14.20;72.70
22006;DHT22;11167;46.988;15.470;2023-04-24T11:42:02;14.20;72.70
22006;DHT22;11167;46.988;15.470;2023-04-24T11:44:02;14.20;72.70
22006;DHT22;11167;46.988;15.470;2023-04-24T11:46:04;14.10;72.50
22006;DHT22;11167;46.988;15.470;2023-04-24T11:48:05;14.30;72.70
22006;DHT22;11167;46.988;15.470;2023-04-24T11:50:13;14.30;72.70
22006;DHT22;11167;46.988;15.470;2023-04-24T11:52:15;14.30;72.70
22006;DHT22;11167;46.988;15.470;2023-04-24T11:54:16;14.30;72.80
22006;DHT22;11167;46.988;15.470;2023-04-24T11:56:17;14.40;72.80
22006;DHT22;11167;46.988;15.470;2023-04-24T11:58:22;14.40;72.80
22006;DHT22;11167;46.988;15.470;2023-04-24T12:00:29;14.40;72.80
22006;DHT22;11167;46.988;15.470;2023-04-24T12:02:31;14.40;72.80
22006;DHT22;11167;46.988;15.470;2023-04-24T12:04:43;14.50;72.90
22006;DHT22;11167;46.988;15.470;2023-04-24T12:07:04;14.50;72.90
22006;DHT22;11167;46.988;15.470;2023-04-24T12:09:09;14.50;72.90
22006;DHT22;11167;46.988;15.470;2023-04-24T12:11:10;14.50;72.90
22006;DHT22;11167;46.988;15.470;2023-04-24T12:13:13;14.60;72.90
22006;DHT22;11167;46.988;15.470;2023-04-24T12:15:16;14.60;72.90
22006;DHT22;11167;46.988;15.470;2023-04-24T12:17:24;14.60;72.90
22006;DHT22;11167;46.988;15.470;2023-04-24T12:19:28;14.60;72.90
22006;DHT22;11167;46.988;15.470;2023-04-24T12:21:30;14.60;72.90
22006;DHT22;11167;46.988;15.470;2023-04-24T12:23:35;14.70;73.50
22006;DHT22;11167;46.988;15.470;2023-04-24T12:25:38;14.70;73.00
22006;DHT22;11167;46.988;15.470;2023-04-24T12:27:39;14.70;73.00
22006;DHT22;11167;46.988;15.470;2023-04-24T12:29:58;14.70;73.00
22006;DHT22;11167;46.988;15.470;2023-04-24T12:31:59;14.70;73.00
22006;DHT22;11167;46.988;15.470;2023-04-24T12:34:00;14.80;73.00
22006;DHT22;11167;46.988;15.470;2023-04-24T12:36:01;14.80;73.10
22006;DHT22;11167;46.988;15.470;2023-04-24T12:38:07;14.80;73.00
22006;DHT22;11167;46.988;15.470;2023-04-24T12:40:10;14.80;73.00
22006;DHT22;11167;46.988;15.470;2023-04-24T12:42:12;14.80;73.00
22006;DHT22;11167;46.988;15.470;2023-04-24T12:44:16;14.90;73.10